createdAt,value
2022-11-08T00:00:18.775Z,85.35
2022-11-08T00:02:45.857Z,85.29
2022-11-08T00:05:31.347Z,85.12
2022-11-08T00:08:16.883Z,85.36
2022-11-08T00:11:02.422Z,85.12
2022-11-08T00:13:48.017Z,85.31
2022-11-08T00:16:14.779Z,85.31
2022-11-08T00:18:41.517Z,85.31
2022-11-08T00:21:08.228Z,85.24
2022-11-08T00:23:35.078Z,84.97
2022-11-08T00:26:01.725Z,85.32
2022-11-08T00:28:28.536Z,85.60
2022-11-08T00:30:55.236Z,85.62
2022-11-08T00:33:22.036Z,85.76
2022-11-08T00:35:48.775Z,85.64
2022-11-08T00:38:15.905Z,85.95
2022-11-08T00:40:42.968Z,86.14
2022-11-08T00:43:09.645Z,86.11
2022-11-08T00:45:36.406Z,86.34
2022-11-08T00:48:03.223Z,86.43
2022-11-08T00:50:29.869Z,86.65
2022-11-08T00:52:56.666Z,86.54
2022-11-08T00:55:23.528Z,86.96
2022-11-08T00:58:05.192Z,86.71
2022-11-08T01:00:31.995Z,86.92
2022-11-08T01:03:17.393Z,86.51
2022-11-08T01:05:44.207Z,86.82
2022-11-08T01:08:11.284Z,86.84
2022-11-08T01:10:41.072Z,86.57
2022-11-08T01:13:07.818Z,86.66
2022-11-08T01:15:40.703Z,86.62
2022-11-08T01:18:08.428Z,86.93
2022-11-08T01:20:39.417Z,86.72
2022-11-08T01:23:06.350Z,86.81
2022-11-08T01:25:39.014Z,86.71
2022-11-08T01:28:05.946Z,86.62
2022-11-08T01:30:37.436Z,86.75
2022-11-08T01:33:04.362Z,86.54
2022-11-08T01:35:34.205Z,86.40
2022-11-08T01:38:01.121Z,86.31
2022-11-08T01:40:28.101Z,86.39
2022-11-08T01:42:54.837Z,86.42
2022-11-08T01:45:59.348Z,86.67
2022-11-08T01:48:26.098Z,86.64
2022-11-08T01:50:52.859Z,86.66
2022-11-08T01:53:19.484Z,86.26
2022-11-08T01:55:46.251Z,86.30
2022-11-08T01:58:18.172Z,86.36
2022-11-08T02:00:45.046Z,86.02
2022-11-08T02:03:13.528Z,86.04
2022-11-08T02:05:40.339Z,86.11
2022-11-08T02:08:08.674Z,85.92
2022-11-08T02:10:38.095Z,86.14
2022-11-08T02:13:11.957Z,86.10
2022-11-08T02:15:41.333Z,86.14
2022-11-08T02:18:08.125Z,85.88
2022-11-08T02:20:34.844Z,85.99
2022-11-08T02:23:21.803Z,85.98
2022-11-08T02:25:48.556Z,85.98
2022-11-08T02:28:16.565Z,85.85
2022-11-08T02:30:43.627Z,85.81
2022-11-08T02:33:17.706Z,85.89
2022-11-08T02:35:54.684Z,85.68
2022-11-08T02:38:22.022Z,85.91
2022-11-08T02:40:50.410Z,86.04
2022-11-08T02:43:17.193Z,85.79
2022-11-08T02:45:44.001Z,85.90
2022-11-08T02:48:10.715Z,86.07
2022-11-08T02:50:37.538Z,85.78
2022-11-08T02:53:04.182Z,85.80
2022-11-08T02:55:30.976Z,85.97
2022-11-08T02:57:57.717Z,85.98
2022-11-08T03:00:24.437Z,85.92
2022-11-08T03:02:54.671Z,85.86
2022-11-08T03:05:21.629Z,85.79
2022-11-08T03:07:48.449Z,85.81
2022-11-08T03:10:15.390Z,85.89
2022-11-08T03:12:43.090Z,85.56
2022-11-08T03:15:11.074Z,85.52
2022-11-08T03:17:37.941Z,85.64
2022-11-08T03:20:04.787Z,85.95
2022-11-08T03:22:31.552Z,85.69
2022-11-08T03:24:58.278Z,85.52
2022-11-08T03:27:24.943Z,85.59
2022-11-08T03:29:51.650Z,85.61
2022-11-08T03:32:18.427Z,85.71
2022-11-08T03:34:45.098Z,85.60
2022-11-08T03:37:11.870Z,85.75
2022-11-08T03:39:38.564Z,85.98
2022-11-08T03:42:05.539Z,86.24
2022-11-08T03:44:32.346Z,86.31
2022-11-08T03:46:59.441Z,86.36
2022-11-08T03:49:26.887Z,86.30
2022-11-08T03:51:54.444Z,86.76
2022-11-08T03:54:21.253Z,86.67
2022-11-08T03:56:48.035Z,86.84
2022-11-08T03:59:14.740Z,87.27
2022-11-08T04:01:41.716Z,87.29
2022-11-08T04:04:08.783Z,87.22
2022-11-08T04:06:35.696Z,87.35
2022-11-08T04:09:02.439Z,87.44
2022-11-08T04:11:47.914Z,87.36
2022-11-08T04:14:33.597Z,87.15
2022-11-08T04:17:00.319Z,87.01
2022-11-08T04:19:45.898Z,87.08
2022-11-08T04:22:12.682Z,87.40
2022-11-08T04:24:39.402Z,87.29
2022-11-08T04:27:06.139Z,86.97
2022-11-08T04:29:32.880Z,87.28
2022-11-08T04:31:59.546Z,87.42
2022-11-08T04:34:26.354Z,87.71
2022-11-08T04:36:54.734Z,87.57
2022-11-08T04:39:21.410Z,87.74
2022-11-08T04:41:48.185Z,87.73
2022-11-08T04:44:15.699Z,87.64
2022-11-08T04:46:42.478Z,87.69
2022-11-08T04:49:09.247Z,87.43
2022-11-08T04:51:35.975Z,88.03
2022-11-08T04:54:02.851Z,87.73
2022-11-08T04:56:30.346Z,87.89
2022-11-08T04:58:58.791Z,87.90
2022-11-08T05:01:27.440Z,88.07
2022-11-08T05:03:54.559Z,88.45
2022-11-08T05:06:29.223Z,88.06
2022-11-08T05:08:56.237Z,88.62
2022-11-08T05:11:24.017Z,88.50
2022-11-08T05:13:51.036Z,88.58
2022-11-08T05:16:22.583Z,88.64
2022-11-08T05:18:49.333Z,88.86
2022-11-08T05:21:36.286Z,88.96
2022-11-08T05:24:03.942Z,88.96
2022-11-08T05:26:30.682Z,89.02
2022-11-08T05:28:57.448Z,89.06
2022-11-08T05:31:24.144Z,89.12
2022-11-08T05:33:51.000Z,89.05
2022-11-08T05:36:17.641Z,89.55
2022-11-08T05:38:44.429Z,89.59
2022-11-08T05:41:13.022Z,89.84
2022-11-08T05:43:40.228Z,89.82
2022-11-08T05:46:07.177Z,89.83
2022-11-08T05:48:34.483Z,89.83
2022-11-08T05:51:01.128Z,89.97
2022-11-08T05:53:28.128Z,89.96
2022-11-08T05:55:59.483Z,89.97
2022-11-08T05:58:26.617Z,89.96
2022-11-08T06:01:19.968Z,90.30
2022-11-08T06:03:47.306Z,89.83
2022-11-08T06:06:15.885Z,89.99
2022-11-08T06:08:47.469Z,89.95
2022-11-08T06:11:18.793Z,90.01
2022-11-08T06:13:45.576Z,89.97
2022-11-08T06:16:12.710Z,90.16
2022-11-08T06:18:39.654Z,90.00
2022-11-08T06:21:07.617Z,90.03
2022-11-08T06:23:34.315Z,89.99
2022-11-08T06:26:01.106Z,89.96
2022-11-08T06:28:27.947Z,90.00
2022-11-08T06:30:54.671Z,90.03
2022-11-08T06:33:21.781Z,90.16
2022-11-08T06:35:48.776Z,90.15
2022-11-08T06:38:15.492Z,90.29
2022-11-08T06:40:42.618Z,89.93
2022-11-08T06:43:19.048Z,90.20
2022-11-08T06:45:46.633Z,90.45
2022-11-08T06:48:13.326Z,90.47
2022-11-08T06:50:41.200Z,90.55
2022-11-08T06:53:08.514Z,90.65
2022-11-08T06:55:35.652Z,90.63
2022-11-08T06:58:02.845Z,90.62
2022-11-08T07:00:29.659Z,90.62
2022-11-08T07:02:57.152Z,90.41
2022-11-08T07:05:24.258Z,90.26
2022-11-08T07:07:54.124Z,90.41
2022-11-08T07:10:25.269Z,90.11
2022-11-08T07:13:06.826Z,90.41
2022-11-08T07:15:36.213Z,90.35
2022-11-08T07:18:10.749Z,90.38
2022-11-08T07:20:38.073Z,89.98
2022-11-08T07:23:05.307Z,90.11
2022-11-08T07:25:32.118Z,90.25
2022-11-08T07:28:00.108Z,90.30
2022-11-08T07:30:27.003Z,90.34
2022-11-08T07:32:54.942Z,90.44
2022-11-08T07:35:21.723Z,90.76
2022-11-08T07:37:48.403Z,90.65
2022-11-08T07:40:15.267Z,90.68
2022-11-08T07:43:09.657Z,90.76
2022-11-08T07:45:28.816Z,90.92
2022-11-08T07:47:59.481Z,91.08
2022-11-08T07:50:26.673Z,91.19
2022-11-08T07:52:53.596Z,91.21
2022-11-08T07:55:20.432Z,91.33
2022-11-08T07:57:47.420Z,91.37
2022-11-08T08:00:14.714Z,91.46
2022-11-08T08:02:41.672Z,91.38
2022-11-08T08:05:10.519Z,91.41
2022-11-08T08:07:37.459Z,91.28
2022-11-08T08:10:04.508Z,91.55
2022-11-08T08:12:31.322Z,91.60
2022-11-08T08:14:58.105Z,91.42
2022-11-08T08:17:24.870Z,91.36
2022-11-08T08:19:51.574Z,91.49
2022-11-08T08:22:18.323Z,91.47
2022-11-08T08:24:45.041Z,91.37
2022-11-08T08:27:11.695Z,91.28
2022-11-08T08:29:38.441Z,91.52
2022-11-08T08:35:53.146Z,91.33
2022-11-08T08:38:19.957Z,91.46
2022-11-08T08:40:47.519Z,91.49
2022-11-08T08:43:14.307Z,91.42
2022-11-08T08:45:41.939Z,91.64
2022-11-08T08:48:08.685Z,91.71
2022-11-08T08:50:35.384Z,91.51
2022-11-08T08:53:04.040Z,91.69
2022-11-08T08:55:31.026Z,91.62
2022-11-08T08:57:57.775Z,91.94
2022-11-08T09:03:11.434Z,92.14
2022-11-08T09:05:41.178Z,92.45
2022-11-08T09:08:07.912Z,92.56
2022-11-08T09:10:34.600Z,92.71
2022-11-08T09:13:02.232Z,92.78
2022-11-08T09:15:29.593Z,93.11
2022-11-08T09:17:57.407Z,93.18
2022-11-08T09:20:25.160Z,93.20
2022-11-08T09:22:51.878Z,93.25
2022-11-08T09:25:18.795Z,93.38
2022-11-08T09:27:45.527Z,93.69
2022-11-08T09:30:12.332Z,93.76
2022-11-08T09:32:59.679Z,93.69
2022-11-08T09:35:25.798Z,94.13
2022-11-08T09:37:52.944Z,94.02
2022-11-08T09:40:37.642Z,94.02
2022-11-08T09:43:26.249Z,94.34
2022-11-08T09:45:56.034Z,94.31
2022-11-08T09:48:36.462Z,94.50
2022-11-08T09:51:09.890Z,94.54
2022-11-08T09:53:53.068Z,94.64
2022-11-08T09:56:35.935Z,95.02
2022-11-08T09:59:09.863Z,95.10
2022-11-08T10:01:36.847Z,95.16
2022-11-08T10:04:07.378Z,95.29
2022-11-08T10:07:01.048Z,95.39
2022-11-08T10:09:37.138Z,95.42
2022-11-08T10:12:06.938Z,95.50
2022-11-08T10:15:00.951Z,95.35
2022-11-08T10:17:35.861Z,95.40
2022-11-08T10:20:28.958Z,95.24
2022-11-08T10:23:37.082Z,95.27
2022-11-08T10:26:06.288Z,95.18
2022-11-08T10:28:36.138Z,95.19
2022-11-08T10:31:02.871Z,95.09
2022-11-08T10:33:31.325Z,94.97
2022-11-08T10:36:22.133Z,94.96
2022-11-08T10:38:58.179Z,94.88
2022-11-08T10:41:38.391Z,94.79
2022-11-08T10:44:06.909Z,94.71
2022-11-08T10:46:39.661Z,94.65
2022-11-08T10:49:16.873Z,94.47
2022-11-08T10:51:45.216Z,94.28
2022-11-08T10:54:49.887Z,94.19
2022-11-08T10:57:37.097Z,94.18
2022-11-08T11:00:20.099Z,94.24
2022-11-08T11:02:50.536Z,94.18
2022-11-08T11:05:21.820Z,93.88
2022-11-08T11:08:00.630Z,93.78
2022-11-08T11:10:31.404Z,93.60
2022-11-08T11:13:06.694Z,93.45
2022-11-08T11:15:35.213Z,93.29
2022-11-08T11:18:02.249Z,92.94
2022-11-08T11:20:29.313Z,92.74
2022-11-08T11:22:56.110Z,92.60
2022-11-08T11:25:23.411Z,92.64
2022-11-08T11:28:13.117Z,92.56
2022-11-08T11:30:42.154Z,92.70
2022-11-08T11:33:08.918Z,92.55
2022-11-08T11:35:38.682Z,92.41
2022-11-08T11:38:07.729Z,92.47
2022-11-08T11:40:43.627Z,92.26
2022-11-08T11:43:18.767Z,92.14
2022-11-08T11:45:48.761Z,92.11
2022-11-08T11:48:28.271Z,92.13
2022-11-08T11:50:55.224Z,91.96
2022-11-08T11:53:23.165Z,91.81
2022-11-08T11:55:56.488Z,91.81
2022-11-08T11:58:55.273Z,91.76
2022-11-08T12:01:30.859Z,91.56
2022-11-08T12:04:20.890Z,91.53
2022-11-08T12:07:05.317Z,91.33
2022-11-08T12:09:32.642Z,91.12
2022-11-08T12:12:03.926Z,91.13
2022-11-08T12:14:47.586Z,91.04
2022-11-08T12:17:53.419Z,91.08
2022-11-08T12:20:26.798Z,90.79
2022-11-08T12:23:03.086Z,90.66
2022-11-08T12:25:36.948Z,90.47
2022-11-08T12:28:33.001Z,90.72
2022-11-08T12:31:23.879Z,90.69
2022-11-08T12:34:21.270Z,90.65
2022-11-08T12:37:01.255Z,90.66
2022-11-08T12:39:41.187Z,90.60
2022-11-08T12:42:16.840Z,90.59
2022-11-08T12:45:01.755Z,90.42
2022-11-08T12:48:00.053Z,90.36
2022-11-08T12:51:01.299Z,90.49
2022-11-08T12:54:16.961Z,90.38
2022-11-08T12:56:48.367Z,90.23
2022-11-08T12:59:30.164Z,90.12
2022-11-08T13:01:56.898Z,90.29
2022-11-08T13:04:32.668Z,90.33
2022-11-08T13:07:19.383Z,90.31
2022-11-08T13:09:57.856Z,90.35
2022-11-08T13:12:33.325Z,90.43
2022-11-08T13:15:01.586Z,90.34
2022-11-08T13:17:29.153Z,90.17
2022-11-08T13:20:01.964Z,90.21
2022-11-08T13:22:31.428Z,90.07
2022-11-08T13:24:58.669Z,90.03
2022-11-08T13:27:43.908Z,90.10
2022-11-08T13:30:16.382Z,90.44
2022-11-08T13:32:43.121Z,90.57
2022-11-08T13:35:20.104Z,90.71
2022-11-08T13:37:56.178Z,90.81
2022-11-08T13:40:44.702Z,90.85
2022-11-08T13:43:25.045Z,90.91
2022-11-08T13:45:51.854Z,90.95
2022-11-08T13:48:25.111Z,90.91
2022-11-08T13:50:56.327Z,90.80
2022-11-08T13:53:23.061Z,90.94
2022-11-08T13:55:50.697Z,91.03
2022-11-08T13:58:29.972Z,91.13
2022-11-08T14:00:56.969Z,91.27
2022-11-08T14:03:32.998Z,91.28
2022-11-08T14:06:05.892Z,91.39
2022-11-08T14:08:47.823Z,91.28
2022-11-08T14:11:19.011Z,91.20
2022-11-08T14:14:12.646Z,91.27
2022-11-08T14:17:03.889Z,91.05
2022-11-08T14:19:33.669Z,91.05
2022-11-08T14:22:01.809Z,91.27
2022-11-08T14:24:35.327Z,91.34
2022-11-08T14:27:02.601Z,91.35
2022-11-08T14:29:29.329Z,91.44
2022-11-08T14:32:06.330Z,91.62
2022-11-08T14:34:37.366Z,91.68
2022-11-08T14:37:05.369Z,91.69
2022-11-08T14:39:33.728Z,91.86
2022-11-08T14:42:02.244Z,91.80
2022-11-08T14:44:29.458Z,91.90
2022-11-08T14:46:56.325Z,91.99
2022-11-08T14:49:33.075Z,92.05
2022-11-08T14:52:23.004Z,92.01
2022-11-08T14:54:58.353Z,92.06
2022-11-08T14:57:29.703Z,92.19
2022-11-08T14:59:57.072Z,92.29
2022-11-08T15:02:24.738Z,92.13
2022-11-08T15:04:51.468Z,92.14
2022-11-08T15:07:18.687Z,92.22
2022-11-08T15:09:45.540Z,92.23
2022-11-08T15:12:17.265Z,92.16
2022-11-08T15:14:51.327Z,92.24
2022-11-08T15:17:34.510Z,92.22
2022-11-08T15:20:27.630Z,92.30
2022-11-08T15:22:56.794Z,92.38
2022-11-08T15:25:34.270Z,92.41
2022-11-08T15:28:20.400Z,92.45
2022-11-08T15:30:50.724Z,92.45
2022-11-08T15:33:24.715Z,92.60
2022-11-08T15:35:51.529Z,92.72
2022-11-08T15:38:18.451Z,92.64
2022-11-08T15:40:52.743Z,92.56
2022-11-08T15:43:31.753Z,92.54
2022-11-08T15:45:59.890Z,92.61
2022-11-08T15:48:27.796Z,92.70
2022-11-08T15:50:56.725Z,92.77
2022-11-08T15:53:24.396Z,92.78
2022-11-08T15:55:55.627Z,92.72
2022-11-08T15:58:29.176Z,92.72
2022-11-08T16:00:56.916Z,92.98
2022-11-08T16:03:23.892Z,92.84
2022-11-08T16:05:52.117Z,92.85
2022-11-08T16:08:20.944Z,92.88
2022-11-08T16:10:49.805Z,92.87
2022-11-08T16:13:22.117Z,92.89
2022-11-08T16:15:48.940Z,92.94
2022-11-08T16:18:16.270Z,92.86
2022-11-08T16:20:43.249Z,92.78
2022-11-08T16:23:10.781Z,92.72
2022-11-08T16:25:43.623Z,92.65
2022-11-08T16:28:17.363Z,92.68
2022-11-08T16:30:46.909Z,92.70
2022-11-08T16:33:18.718Z,92.64
2022-11-08T16:35:45.433Z,92.62
2022-11-08T16:38:12.209Z,92.54
2022-11-08T16:40:41.278Z,92.39
2022-11-08T16:43:11.755Z,92.22
2022-11-08T16:46:03.854Z,92.17
2022-11-08T16:48:26.257Z,92.46
2022-11-08T16:50:59.452Z,92.16
2022-11-08T16:53:26.524Z,91.95
2022-11-08T16:55:53.279Z,91.59
2022-11-08T16:58:20.203Z,91.36
2022-11-08T17:00:47.296Z,90.80
2022-11-08T17:03:15.999Z,90.52
2022-11-08T17:05:42.735Z,90.31
2022-11-08T17:08:09.454Z,90.36
2022-11-08T17:10:36.161Z,90.23
2022-11-08T17:13:02.904Z,89.96
2022-11-08T17:15:29.572Z,89.93
2022-11-08T17:17:57.274Z,89.70
2022-11-08T17:20:24.492Z,89.42
2022-11-08T17:22:54.032Z,89.19
2022-11-08T17:25:21.910Z,88.97
2022-11-08T17:27:51.862Z,88.82
2022-11-08T17:30:23.840Z,88.62
2022-11-08T17:32:53.469Z,88.55
2022-11-08T17:35:20.335Z,88.48
2022-11-08T17:37:47.597Z,88.42
2022-11-08T17:40:14.362Z,88.40
2022-11-08T17:42:41.037Z,88.19
2022-11-08T17:45:08.825Z,88.20
2022-11-08T17:47:36.407Z,88.22
2022-11-08T17:50:03.606Z,88.21
2022-11-08T17:52:30.379Z,88.19
2022-11-08T17:54:57.050Z,88.32
2022-11-08T17:57:23.806Z,88.32
2022-11-08T17:59:50.570Z,88.61
2022-11-08T18:02:17.474Z,88.74
2022-11-08T18:04:44.386Z,88.47
2022-11-08T18:07:11.148Z,88.43
2022-11-08T18:09:38.213Z,88.74
2022-11-08T18:12:05.314Z,88.86
2022-11-08T18:14:32.079Z,88.89
2022-11-08T18:16:59.810Z,88.94
2022-11-08T18:19:26.604Z,88.80
2022-11-08T18:21:53.318Z,88.90
2022-11-08T18:24:20.290Z,89.10
2022-11-08T18:26:47.100Z,88.85
2022-11-08T18:29:13.925Z,89.03
2022-11-08T18:31:40.767Z,89.49
2022-11-08T18:34:07.445Z,90.01
2022-11-08T18:36:34.178Z,90.46
2022-11-08T18:39:01.297Z,90.47
2022-11-08T18:41:30.134Z,89.96
2022-11-08T18:43:57.186Z,90.26
2022-11-08T18:46:24.884Z,90.40
2022-11-08T18:48:51.904Z,91.06
2022-11-08T18:51:18.929Z,91.08
2022-11-08T18:53:45.690Z,91.05
2022-11-08T18:56:12.440Z,91.27
2022-11-08T18:58:39.244Z,91.00
2022-11-08T19:01:06.065Z,90.98
2022-11-08T19:03:33.371Z,91.12
2022-11-08T19:06:00.098Z,91.14
2022-11-08T19:08:27.616Z,90.70
2022-11-08T19:10:56.748Z,90.69
2022-11-08T19:13:24.521Z,90.77
2022-11-08T19:16:03.361Z,90.50
2022-11-08T19:18:30.733Z,90.19
2022-11-08T19:20:58.195Z,90.13
2022-11-08T19:23:25.146Z,90.06
2022-11-08T19:25:56.170Z,89.63
2022-11-08T19:28:23.802Z,89.66
2022-11-08T19:30:51.990Z,89.75
2022-11-08T19:33:19.487Z,89.69
2022-11-08T19:35:46.518Z,89.58
2022-11-08T19:38:13.280Z,89.48
2022-11-08T19:40:40.378Z,89.62
2022-11-08T19:43:07.250Z,89.44
2022-11-08T19:45:34.122Z,88.95
2022-11-08T19:48:00.802Z,89.05
2022-11-08T19:50:27.591Z,88.95
2022-11-08T19:52:54.379Z,88.54
2022-11-08T19:55:21.023Z,88.74
2022-11-08T19:57:47.812Z,88.01
2022-11-08T20:00:15.558Z,87.74
2022-11-08T20:02:42.304Z,87.97
2022-11-08T20:05:10.024Z,88.30
2022-11-08T20:07:36.730Z,88.31
2022-11-08T20:10:03.724Z,88.36
2022-11-08T20:12:33.505Z,88.45
2022-11-08T20:15:00.276Z,88.56
2022-11-08T20:17:26.918Z,88.70
2022-11-08T20:19:53.759Z,88.71
2022-11-08T20:22:20.490Z,88.58
2022-11-08T20:24:47.261Z,88.66
2022-11-08T20:27:13.985Z,88.88
2022-11-08T20:29:40.913Z,88.83
2022-11-08T20:32:07.755Z,88.89
2022-11-08T20:34:34.454Z,89.04
2022-11-08T20:37:01.170Z,89.14
2022-11-08T20:39:27.931Z,88.83
2022-11-08T20:41:54.816Z,89.07
2022-11-08T20:44:22.783Z,88.99
2022-11-08T20:46:49.523Z,88.89
2022-11-08T20:50:00.295Z,88.70
2022-11-08T20:52:27.067Z,88.68
2022-11-08T20:54:53.886Z,88.67
2022-11-08T20:57:20.718Z,88.95
2022-11-08T20:59:47.775Z,89.20
2022-11-08T21:02:14.795Z,89.25
2022-11-08T21:04:41.580Z,89.55
2022-11-08T21:08:00.971Z,90.13
2022-11-08T21:10:13.292Z,90.44
2022-11-08T21:12:42.151Z,90.41
2022-11-08T21:15:10.245Z,90.71
2022-11-08T21:17:36.941Z,91.01
2022-11-08T21:20:04.999Z,91.47
2022-11-08T21:22:31.729Z,91.52
2022-11-08T21:24:58.467Z,91.89
2022-11-08T21:27:29.533Z,91.97
2022-11-08T21:29:56.821Z,92.29
2022-11-08T21:32:23.551Z,91.99
2022-11-08T21:34:50.324Z,91.93
2022-11-08T21:37:16.993Z,91.64
2022-11-08T21:39:43.750Z,91.50
2022-11-08T21:42:10.487Z,91.78
2022-11-08T21:44:37.137Z,91.78
2022-11-08T21:47:03.865Z,91.78
2022-11-08T21:49:30.585Z,91.69
2022-11-08T21:51:57.340Z,91.46
2022-11-08T21:54:24.272Z,91.45
2022-11-08T21:56:50.978Z,91.34
2022-11-08T21:59:17.717Z,90.97
2022-11-08T22:01:44.461Z,90.92
2022-11-08T22:04:11.106Z,90.76
2022-11-08T22:06:38.041Z,90.97
2022-11-08T22:09:04.916Z,90.88
2022-11-08T22:11:31.539Z,90.84
2022-11-08T22:13:58.283Z,91.07
2022-11-08T22:16:25.030Z,90.56
2022-11-08T22:19:04.869Z,90.65
2022-11-08T22:21:39.308Z,90.87
2022-11-08T22:24:11.503Z,90.49
2022-11-08T22:26:38.776Z,90.45
2022-11-08T22:29:05.882Z,90.42
2022-11-08T22:31:32.728Z,90.04
2022-11-08T22:33:59.533Z,89.57
2022-11-08T22:36:26.315Z,89.54
2022-11-08T22:38:53.008Z,89.37
2022-11-08T22:41:20.429Z,89.37
2022-11-08T22:43:47.283Z,89.22
2022-11-08T22:46:14.047Z,89.57
2022-11-08T22:48:41.092Z,89.44
2022-11-08T22:51:08.011Z,89.27
2022-11-08T22:53:34.678Z,89.34
2022-11-08T22:56:02.267Z,89.03
2022-11-08T22:58:31.686Z,89.17
2022-11-08T23:00:58.560Z,89.10
2022-11-08T23:03:25.252Z,88.84
2022-11-08T23:05:52.720Z,89.11
2022-11-08T23:08:19.832Z,89.08
2022-11-08T23:11:09.654Z,88.78
2022-11-08T23:13:55.544Z,88.62
2022-11-08T23:16:32.009Z,88.56
2022-11-08T23:19:28.570Z,88.38
2022-11-08T23:22:14.003Z,88.20
2022-11-08T23:24:42.446Z,88.43
2022-11-08T23:27:28.468Z,88.24
2022-11-08T23:30:13.989Z,88.30
2022-11-08T23:32:44.893Z,88.38
2022-11-08T23:35:11.779Z,88.23
2022-11-08T23:37:38.589Z,88.40
2022-11-08T23:40:24.991Z,88.28
2022-11-08T23:43:22.763Z,88.04
2022-11-08T23:45:49.592Z,88.16
2022-11-08T23:48:16.302Z,87.89
2022-11-08T23:50:50.153Z,88.02
2022-11-08T23:53:17.441Z,88.06
2022-11-08T23:55:44.718Z,87.98
2022-11-08T23:58:12.476Z,88.05
